createdAt,value
2023-04-12T00:04:22.914Z,91.00
2023-04-12T00:11:44.457Z,92.20
2023-04-12T00:14:11.332Z,92.10
2023-04-12T00:19:06.833Z,92.90
2023-04-12T00:21:33.717Z,93.20
2023-04-12T00:26:28.328Z,93.90
2023-04-12T00:28:55.489Z,94.40
2023-04-12T00:33:49.769Z,94.80
2023-04-12T00:36:17.240Z,95.10
2023-04-12T00:38:46.164Z,94.70
2023-04-12T00:41:14.460Z,94.30
2023-04-12T00:43:42.296Z,93.90
2023-04-12T00:46:09.997Z,93.60
2023-04-12T00:48:37.879Z,94.40
2023-04-12T00:51:07.405Z,95.50
2023-04-12T00:53:34.832Z,96.20
2023-04-12T00:56:01.912Z,95.80
2023-04-12T01:06:41.420Z,97.60
2023-04-12T01:09:27.389Z,98.70
2023-04-12T01:12:35.776Z,99.50
2023-04-12T01:15:09.976Z,99.90
2023-04-12T01:17:45.543Z,99.30
2023-04-12T01:20:16.828Z,98.80
2023-04-12T01:23:04.614Z,98.80
2023-04-12T01:25:57.657Z,98.20
2023-04-12T01:28:33.884Z,97.90
2023-04-12T01:31:04.700Z,97.90
2023-04-12T01:33:34.110Z,97.90
2023-04-12T01:36:05.049Z,97.50
2023-04-12T01:38:34.233Z,97.50
2023-04-12T01:41:01.429Z,97.50
2023-04-12T01:43:28.251Z,97.50
2023-04-12T01:45:55.339Z,97.80
2023-04-12T01:51:14.692Z,99.10
2023-04-12T01:53:53.433Z,99.40
2023-04-12T01:58:50.810Z,98.70
2023-04-12T02:01:19.364Z,98.50
2023-04-12T02:03:49.947Z,98.40
2023-04-12T02:06:22.727Z,99.80
2023-04-12T02:08:50.019Z,99.90
2023-04-12T02:11:16.851Z,99.90
2023-04-12T02:16:14.227Z,99.90
2023-04-12T02:23:36.532Z,99.70
2023-04-12T02:26:03.752Z,99.80
2023-04-12T02:28:30.813Z,99.50
2023-04-12T02:33:25.549Z,99.90
2023-04-12T02:35:52.580Z,99.90
2023-04-12T02:45:41.432Z,99.90
2023-04-12T02:50:37.956Z,99.90
2023-04-12T02:53:04.904Z,99.90
2023-04-12T02:57:59.141Z,99.90
2023-04-12T03:00:25.994Z,99.90
2023-04-12T03:05:20.502Z,99.90
2023-04-12T03:07:47.407Z,99.90
2023-04-12T03:15:09.880Z,99.90
2023-04-12T03:17:36.761Z,99.90
2023-04-12T03:20:07.851Z,99.90
2023-04-12T03:25:05.186Z,99.90
2023-04-12T03:27:32.247Z,99.90
2023-04-12T03:32:26.455Z,99.90
2023-04-12T03:34:53.335Z,99.90
2023-04-12T03:37:20.343Z,99.90
2023-04-12T03:42:25.808Z,99.90
2023-04-12T03:44:58.846Z,99.90
2023-04-12T03:50:10.423Z,99.90
2023-04-12T03:52:39.154Z,99.90
2023-04-12T03:55:07.604Z,99.90
2023-04-12T03:57:35.302Z,99.90
2023-04-12T04:00:02.749Z,99.90
2023-04-12T04:02:30.117Z,99.90
2023-04-12T04:09:51.535Z,99.90
2023-04-12T04:12:18.310Z,99.90
2023-04-12T04:14:45.410Z,99.90
2023-04-12T04:19:39.552Z,99.90
2023-04-12T04:24:34.276Z,99.90
2023-04-12T04:29:29.853Z,99.90
2023-04-12T04:34:25.589Z,99.90
2023-04-12T04:41:54.658Z,99.90
2023-04-12T04:44:21.942Z,99.90
2023-04-12T04:51:44.098Z,99.90
2023-04-12T05:01:36.638Z,99.90
2023-04-12T05:04:04.335Z,99.90
2023-04-12T05:08:58.981Z,99.90
2023-04-12T05:16:20.755Z,99.90
2023-04-12T05:21:14.896Z,99.90
2023-04-12T05:23:47.178Z,99.90
2023-04-12T05:28:41.381Z,99.90
2023-04-12T05:40:58.968Z,99.90
2023-04-12T05:43:25.816Z,99.90
2023-04-12T05:50:52.209Z,99.90
2023-04-12T05:53:19.266Z,99.90
2023-04-12T06:00:45.277Z,99.90
2023-04-12T06:03:12.601Z,99.90
2023-04-12T06:08:08.520Z,99.90
2023-04-12T06:10:35.520Z,99.90
2023-04-12T06:13:02.346Z,99.90
2023-04-12T06:20:27.620Z,99.90
2023-04-12T06:30:18.535Z,99.90
2023-04-12T06:32:45.792Z,99.90
2023-04-12T06:37:39.858Z,99.90
2023-04-12T06:40:08.258Z,99.90
2023-04-12T06:42:35.364Z,99.90
2023-04-12T06:45:02.308Z,99.90
2023-04-12T06:47:29.725Z,99.90
2023-04-12T06:49:58.227Z,99.90
2023-04-12T06:52:28.286Z,99.90
2023-04-12T06:54:57.027Z,99.90
2023-04-12T06:59:52.250Z,99.90
2023-04-12T07:04:47.347Z,99.90
2023-04-12T07:09:41.480Z,99.90
2023-04-12T07:17:02.880Z,99.90
2023-04-12T07:21:58.645Z,99.90
2023-04-12T07:26:55.891Z,99.90
2023-04-12T07:29:23.594Z,99.70
2023-04-12T07:34:18.123Z,99.70
2023-04-12T07:39:12.662Z,99.70
2023-04-12T07:41:39.962Z,99.10
2023-04-12T07:46:34.440Z,99.90
2023-04-12T07:51:28.578Z,99.90
2023-04-12T07:53:55.883Z,99.90
2023-04-12T07:56:22.879Z,99.90
2023-04-12T08:03:44.869Z,97.60
2023-04-12T08:06:12.597Z,96.70
2023-04-12T08:11:06.762Z,98.50
2023-04-12T08:13:34.729Z,99.90
2023-04-12T08:16:02.037Z,99.90
2023-04-12T08:20:58.292Z,99.90
2023-04-12T08:26:00.050Z,99.90
2023-04-12T08:28:28.773Z,99.90
2023-04-12T08:35:50.473Z,99.90
2023-04-12T08:38:17.352Z,99.90
2023-04-12T08:43:14.517Z,99.90
2023-04-12T08:48:09.186Z,99.90
2023-04-12T08:50:36.786Z,99.90
2023-04-12T08:57:58.974Z,99.90
2023-04-12T09:00:26.401Z,99.90
2023-04-12T09:02:53.644Z,99.90
2023-04-12T09:05:27.229Z,99.90
2023-04-12T09:07:54.140Z,99.90
2023-04-12T09:10:35.216Z,99.90
2023-04-12T09:15:30.974Z,99.90
2023-04-12T09:18:06.946Z,99.90
2023-04-12T09:20:34.182Z,99.90
2023-04-12T09:23:02.860Z,99.40
2023-04-12T09:25:40.798Z,99.60
2023-04-12T09:28:27.803Z,98.60
2023-04-12T09:30:55.694Z,98.90
2023-04-12T09:33:34.263Z,98.70
2023-04-12T09:36:02.995Z,98.30
2023-04-12T09:38:31.447Z,98.40
2023-04-12T09:41:01.992Z,97.50
2023-04-12T09:43:40.966Z,96.90
2023-04-12T09:46:16.482Z,94.00
2023-04-12T09:48:51.240Z,94.50
2023-04-12T09:51:31.365Z,93.90
2023-04-12T09:54:06.917Z,93.10
2023-04-12T09:56:35.962Z,92.90
2023-04-12T09:59:04.710Z,93.70
2023-04-12T10:01:51.401Z,91.50
2023-04-12T10:04:19.806Z,88.60
2023-04-12T10:09:14.634Z,85.00
2023-04-12T10:11:42.287Z,86.50
2023-04-12T10:14:09.991Z,82.80
2023-04-12T10:19:04.705Z,78.10
2023-04-12T10:21:32.021Z,75.70
2023-04-12T10:23:59.820Z,77.60
2023-04-12T10:26:27.656Z,71.20
2023-04-12T10:29:25.955Z,73.50
2023-04-12T10:31:57.847Z,66.00
2023-04-12T10:34:28.980Z,68.40
2023-04-12T10:37:00.587Z,69.40
2023-04-12T10:39:41.134Z,71.40
2023-04-12T10:42:31.388Z,70.60
2023-04-12T10:45:24.205Z,66.20
2023-04-12T10:47:54.701Z,65.90
2023-04-12T10:50:25.673Z,66.80
2023-04-12T10:53:12.713Z,60.60
2023-04-12T10:55:40.969Z,60.00
2023-04-12T10:58:07.788Z,62.70
2023-04-12T11:00:56.831Z,60.70
2023-04-12T11:03:24.863Z,59.50
2023-04-12T11:06:06.446Z,59.40
2023-04-12T11:08:41.126Z,59.60
2023-04-12T11:11:19.786Z,62.40
2023-04-12T11:13:46.857Z,65.10
2023-04-12T11:18:41.347Z,66.50
2023-04-12T11:21:08.524Z,69.10
2023-04-12T11:23:36.430Z,69.80
2023-04-12T11:26:05.030Z,70.00
2023-04-12T11:31:03.626Z,71.20
2023-04-12T11:33:38.592Z,70.80
2023-04-12T11:36:12.300Z,66.90
2023-04-12T11:38:39.823Z,62.10
2023-04-12T11:41:08.913Z,62.40
2023-04-12T11:43:38.963Z,60.60
2023-04-12T11:46:06.416Z,57.20
2023-04-12T11:48:33.783Z,61.00
2023-04-12T11:56:06.450Z,63.10
2023-04-12T11:58:33.352Z,65.40
2023-04-12T12:01:00.892Z,67.00
2023-04-12T12:03:28.686Z,68.00
2023-04-12T12:05:56.582Z,70.50
2023-04-12T12:13:48.944Z,71.10
2023-04-12T12:16:17.499Z,72.60
2023-04-12T12:18:46.012Z,72.90
2023-04-12T12:21:14.302Z,73.20
2023-04-12T12:23:43.779Z,74.40
2023-04-12T12:26:19.601Z,74.60
2023-04-12T12:28:53.938Z,76.30
2023-04-12T12:31:23.241Z,76.70
2023-04-12T12:33:54.168Z,82.90
2023-04-12T12:36:21.228Z,85.20
2023-04-12T12:38:49.379Z,83.90
2023-04-12T12:41:21.631Z,79.60
2023-04-12T12:43:51.508Z,85.50
2023-04-12T12:46:20.105Z,81.90
2023-04-12T12:48:48.103Z,86.60
2023-04-12T12:51:17.906Z,89.80
2023-04-12T12:53:45.327Z,90.50
2023-04-12T12:56:13.746Z,91.80
2023-04-12T12:58:41.434Z,92.70
2023-04-12T13:01:08.724Z,94.10
2023-04-12T13:08:35.198Z,96.10
2023-04-12T13:11:02.162Z,96.40
2023-04-12T13:15:56.415Z,96.40
2023-04-12T13:18:23.269Z,96.10
2023-04-12T13:23:17.563Z,96.40
2023-04-12T13:33:07.140Z,96.10
2023-04-12T13:40:28.785Z,96.20
2023-04-12T13:42:55.809Z,96.20
2023-04-12T13:45:23.114Z,96.90
2023-04-12T13:55:12.710Z,96.00
2023-04-12T13:57:39.617Z,95.40
2023-04-12T14:02:34.424Z,96.10
2023-04-12T14:14:51.902Z,95.30
2023-04-12T14:17:18.795Z,94.90
2023-04-12T14:27:08.681Z,95.40
2023-04-12T14:29:36.891Z,95.10
2023-04-12T14:41:55.365Z,94.80
2023-04-12T14:46:53.446Z,94.30
2023-04-12T14:49:20.509Z,94.60
2023-04-12T14:51:47.465Z,94.60
2023-04-12T14:59:19.582Z,94.50
2023-04-12T15:01:46.647Z,94.50
2023-04-12T15:04:13.968Z,93.90
2023-04-12T15:06:42.693Z,94.10
2023-04-12T15:09:10.153Z,94.30
2023-04-12T15:11:38.325Z,94.00
2023-04-12T15:16:35.318Z,93.80
2023-04-12T15:26:35.071Z,92.20
2023-04-12T15:39:01.062Z,92.00
2023-04-12T15:41:32.842Z,91.90
2023-04-12T15:43:59.898Z,92.20
2023-04-12T15:46:27.048Z,92.70
2023-04-12T15:51:21.222Z,93.10
2023-04-12T15:53:48.042Z,92.80
2023-04-12T15:56:19.873Z,92.90
2023-04-12T15:58:47.458Z,93.20
2023-04-12T16:01:14.327Z,93.00
2023-04-12T16:03:42.885Z,93.30
2023-04-12T16:06:10.060Z,93.00
2023-04-12T16:08:36.993Z,93.50
2023-04-12T16:11:04.030Z,93.20
2023-04-12T16:13:30.963Z,93.30
2023-04-12T16:15:57.951Z,93.40
2023-04-12T16:18:24.765Z,93.90
2023-04-12T16:20:52.247Z,94.20
2023-04-12T16:23:19.149Z,93.60
2023-04-12T16:25:45.970Z,93.40
2023-04-12T16:28:14.527Z,93.20
2023-04-12T16:30:42.052Z,93.40
2023-04-12T16:35:36.681Z,93.40
2023-04-12T16:38:04.497Z,93.60
2023-04-12T16:40:31.762Z,93.30
2023-04-12T16:42:59.034Z,93.60
2023-04-12T16:45:25.994Z,93.50
2023-04-12T16:47:53.084Z,93.80
2023-04-12T16:50:20.983Z,93.60
2023-04-12T16:52:49.744Z,93.70
2023-04-12T16:55:16.868Z,93.60
2023-04-12T16:57:45.165Z,94.30
2023-04-12T17:00:19.551Z,94.30
2023-04-12T17:02:49.165Z,94.40
2023-04-12T17:05:18.154Z,95.00
2023-04-12T17:07:47.977Z,95.30
2023-04-12T17:10:18.769Z,95.10
2023-04-12T17:12:46.583Z,94.70
2023-04-12T17:15:16.239Z,94.60
2023-04-12T17:17:48.908Z,94.50
2023-04-12T17:20:16.901Z,94.60
2023-04-12T17:22:44.075Z,94.80
2023-04-12T17:25:11.781Z,96.90
2023-04-12T17:27:39.077Z,97.10
2023-04-12T17:30:11.828Z,98.20
2023-04-12T17:32:41.859Z,99.90
2023-04-12T17:35:09.260Z,99.90
2023-04-12T17:37:40.291Z,99.90
2023-04-12T17:40:14.056Z,99.90
2023-04-12T17:42:42.371Z,99.90
2023-04-12T17:45:14.718Z,99.90
2023-04-12T17:47:42.885Z,99.90
2023-04-12T17:50:11.235Z,99.90
2023-04-12T17:52:38.470Z,99.90
2023-04-12T17:55:07.597Z,99.90
2023-04-12T17:57:34.717Z,99.90
2023-04-12T18:00:01.543Z,99.90
2023-04-12T18:02:28.874Z,99.90
2023-04-12T18:04:56.007Z,99.90
2023-04-12T18:07:23.170Z,99.90
2023-04-12T18:09:50.741Z,99.90
2023-04-12T18:12:17.599Z,99.90
2023-04-12T18:14:44.992Z,99.90
2023-04-12T18:17:11.927Z,99.90
2023-04-12T18:19:38.767Z,99.90
2023-04-12T18:22:05.915Z,99.90
2023-04-12T18:24:33.090Z,99.90
2023-04-12T18:27:00.198Z,99.90
2023-04-12T18:29:27.300Z,99.90
2023-04-12T18:31:54.441Z,99.90
2023-04-12T18:34:22.766Z,99.90
2023-04-12T18:36:49.967Z,99.90
2023-04-12T18:39:16.897Z,99.90
2023-04-12T18:41:43.787Z,99.90
2023-04-12T18:44:11.936Z,99.90
2023-04-12T18:46:42.202Z,99.90
2023-04-12T18:49:09.194Z,99.90
2023-04-12T18:51:36.333Z,99.90
2023-04-12T18:54:04.144Z,99.90
2023-04-12T18:56:31.083Z,99.90
2023-04-12T19:01:25.503Z,99.90
2023-04-12T19:03:52.578Z,99.90
2023-04-12T19:06:19.688Z,99.90
2023-04-12T19:08:46.692Z,99.90
2023-04-12T19:11:13.572Z,99.90
2023-04-12T19:13:40.462Z,99.90
2023-04-12T19:16:08.027Z,99.90
2023-04-12T19:18:35.363Z,99.90
2023-04-12T19:21:02.876Z,99.90
2023-04-12T19:23:30.565Z,99.90
2023-04-12T19:25:59.889Z,99.90
2023-04-12T19:28:27.475Z,99.90
2023-04-12T19:30:54.955Z,99.90
2023-04-12T19:33:21.828Z,99.90
2023-04-12T19:35:48.815Z,99.90
2023-04-12T19:38:15.895Z,99.90
2023-04-12T19:40:43.234Z,99.90
2023-04-12T19:43:10.268Z,99.90
2023-04-12T19:45:37.869Z,99.90
2023-04-12T19:48:05.067Z,99.90
2023-04-12T19:50:31.988Z,99.90
2023-04-12T19:52:58.971Z,99.90
2023-04-12T19:55:26.090Z,99.90
2023-04-12T19:57:53.193Z,99.90
2023-04-12T20:00:20.917Z,99.90
2023-04-12T20:02:51.889Z,99.90
2023-04-12T20:05:21.210Z,99.90
2023-04-12T20:07:48.150Z,99.90
2023-04-12T20:10:15.705Z,99.90
2023-04-12T20:12:42.791Z,99.90
2023-04-12T20:15:11.915Z,99.90
2023-04-12T20:17:42.816Z,99.90
2023-04-12T20:20:11.016Z,99.90
2023-04-12T20:22:39.350Z,99.90
2023-04-12T20:25:06.540Z,99.90
2023-04-12T20:27:33.782Z,99.90
2023-04-12T20:30:00.778Z,99.90
2023-04-12T20:32:30.571Z,99.90
2023-04-12T20:34:58.384Z,99.90
2023-04-12T20:37:25.486Z,99.90
2023-04-12T20:39:52.501Z,99.90
2023-04-12T20:42:21.403Z,99.90
2023-04-12T20:44:48.511Z,99.90
2023-04-12T20:47:15.686Z,99.90
2023-04-12T20:49:43.435Z,99.90
2023-04-12T20:52:11.051Z,99.90
2023-04-12T20:54:38.533Z,99.90
2023-04-12T20:57:05.420Z,99.90
2023-04-12T20:59:32.531Z,99.90
2023-04-12T21:02:00.873Z,99.90
2023-04-12T21:04:28.173Z,99.90
2023-04-12T21:06:55.636Z,99.90
2023-04-12T21:09:23.548Z,99.90
2023-04-12T21:11:52.469Z,99.90
2023-04-12T21:14:20.556Z,99.90
2023-04-12T21:16:48.929Z,99.90
2023-04-12T21:19:18.197Z,99.90
2023-04-12T21:21:46.600Z,99.90
2023-04-12T21:24:13.714Z,99.90
2023-04-12T21:26:43.060Z,99.90
2023-04-12T21:29:11.237Z,99.90
2023-04-12T21:31:39.216Z,99.90
2023-04-12T21:36:34.312Z,99.90
2023-04-12T21:39:01.590Z,99.90
2023-04-12T21:41:29.735Z,99.90
2023-04-12T21:43:56.770Z,99.90
2023-04-12T21:46:27.736Z,99.90
2023-04-12T21:48:54.699Z,99.90
2023-04-12T21:53:50.433Z,99.90
2023-04-12T21:56:17.360Z,99.90
2023-04-12T21:58:44.224Z,99.90
2023-04-12T22:01:11.029Z,99.90
2023-04-12T22:03:38.180Z,99.90
2023-04-12T22:06:05.774Z,99.90
2023-04-12T22:08:33.240Z,99.90
2023-04-12T22:11:00.603Z,99.90
2023-04-12T22:13:28.198Z,99.90
2023-04-12T22:15:55.070Z,99.90
2023-04-12T22:18:22.155Z,99.90
2023-04-12T22:20:49.122Z,99.90
2023-04-12T22:25:45.757Z,99.90
2023-04-12T22:28:12.634Z,99.90
2023-04-12T22:33:08.514Z,99.90
2023-04-12T22:35:36.443Z,99.90
2023-04-12T22:38:04.222Z,99.90
2023-04-12T22:40:31.135Z,99.90
2023-04-12T22:47:53.134Z,99.90
2023-04-12T22:50:20.301Z,99.90
2023-04-12T23:00:14.941Z,99.90
2023-04-12T23:07:41.265Z,99.90
2023-04-12T23:10:08.883Z,99.90
2023-04-12T23:12:37.476Z,99.90
2023-04-12T23:17:33.905Z,99.90
2023-04-12T23:20:02.203Z,99.90
2023-04-12T23:22:55.136Z,99.90
2023-04-12T23:25:41.372Z,99.90
2023-04-12T23:28:13.506Z,99.90
2023-04-12T23:30:48.635Z,99.90
2023-04-12T23:33:20.376Z,99.90
2023-04-12T23:35:53.034Z,99.90
2023-04-12T23:38:24.519Z,99.90
2023-04-12T23:43:23.296Z,99.90
2023-04-12T23:53:13.488Z,99.90
2023-04-12T23:55:42.227Z,99.90
2023-04-12T23:58:09.791Z,99.90
